Time;durP1;ratioP1;P1;durP2;ratioP2;P2;SDS_P1;SDS_P2;PMS_P1;PMS_P2;Temp;Humidity;BMP_temperature;BMP_pressure;BME280_temperature;BME280_humidity;BME280_pressure;Samples;Min_cycle;Max_cycle;Signal;HPM_P1;HPM_P2
2022/04/25 00:01:15;;;;;;;14.82;9.90;;;7.30;99.90;;;;;;5053521;28;20390;-82
2022/04/25 00:03:42;;;;;;;21.83;9.43;;;7.60;99.90;;;;;;5058012;28;20119;-78
2022/04/25 00:06:08;;;;;;;20.90;9.25;;;7.50;99.90;;;;;;5066870;28;20121;-78
2022/04/25 00:08:34;;;;;;;16.30;9.00;;;7.50;99.90;;;;;;5045091;28;20129;-78
2022/04/25 00:11:00;;;;;;;16.38;9.30;;;7.60;99.90;;;;;;5065906;28;20033;-78
2022/04/25 00:13:26;;;;;;;18.75;8.98;;;7.70;99.90;;;;;;5069044;28;20487;-78
2022/04/25 00:15:55;;;;;;;15.23;9.57;;;7.80;99.90;;;;;;5065920;28;20498;-79
2022/04/25 00:18:22;;;;;;;18.83;9.82;;;7.90;99.90;;;;;;5055851;28;20062;-80
2022/04/25 00:20:48;;;;;;;14.75;8.73;;;7.90;99.90;;;;;;5051567;28;20037;-81
2022/04/25 00:23:14;;;;;;;15.48;8.77;;;8.00;99.90;;;;;;5069800;28;20044;-81
2022/04/25 00:25:40;;;;;;;15.23;8.93;;;8.30;99.90;;;;;;5051637;28;20132;-81
2022/04/25 00:28:07;;;;;;;15.55;8.82;;;8.10;99.90;;;;;;5053012;28;20127;-81
2022/04/25 00:30:33;;;;;;;14.23;8.85;;;8.00;99.90;;;;;;5071501;28;20036;-81
2022/04/25 00:33:00;;;;;;;14.82;8.07;;;8.00;99.90;;;;;;5053668;28;20119;-81
2022/04/25 00:35:26;;;;;;;15.05;8.07;;;8.00;99.90;;;;;;5064323;28;20048;-81
2022/04/25 00:37:53;;;;;;;13.80;8.30;;;7.90;99.90;;;;;;5072028;28;20041;-81
2022/04/25 00:40:21;;;;;;;14.65;8.90;;;7.90;99.90;;;;;;5071674;28;20075;-81
2022/04/25 00:42:47;;;;;;;14.75;8.98;;;7.80;99.90;;;;;;5037155;28;20039;-80
2022/04/25 00:45:13;;;;;;;16.65;9.50;;;7.90;99.90;;;;;;5065987;28;20459;-81
2022/04/25 00:47:40;;;;;;;17.25;9.23;;;7.80;99.90;;;;;;5066848;28;20123;-81
2022/04/25 00:50:07;;;;;;;15.00;8.95;;;7.80;99.90;;;;;;5059456;28;20048;-81
2022/04/25 00:52:33;;;;;;;16.25;8.82;;;7.80;99.90;;;;;;5071914;28;20152;-82
2022/04/25 00:55:02;;;;;;;15.57;9.35;;;8.30;99.90;;;;;;5043047;28;20051;-82
2022/04/25 00:57:27;;;;;;;14.25;8.82;;;7.80;99.90;;;;;;5047804;28;20451;-82
2022/04/25 00:59:56;;;;;;;18.35;9.43;;;7.90;99.90;;;;;;5055067;28;20115;-82
2022/04/25 01:02:22;;;;;;;14.15;9.13;;;7.90;99.90;;;;;;5071983;28;20139;-82
2022/04/25 01:04:48;;;;;;;17.35;9.07;;;8.00;99.90;;;;;;5066763;28;20502;-82
2022/04/25 01:07:14;;;;;;;16.52;9.40;;;7.90;99.90;;;;;;5055457;28;20037;-82
2022/04/25 01:09:40;;;;;;;14.43;9.40;;;8.00;99.90;;;;;;5058259;28;20237;-78
2022/04/25 01:12:06;;;;;;;17.33;9.02;;;8.00;99.90;;;;;;5055089;28;20081;-78
2022/04/25 01:14:31;;;;;;;15.68;9.25;;;8.00;99.90;;;;;;5056713;28;20096;-78
2022/04/25 01:16:57;;;;;;;18.05;9.38;;;8.40;99.90;;;;;;5056904;28;20086;-78
2022/04/25 01:19:23;;;;;;;15.30;9.25;;;8.00;99.90;;;;;;5053126;28;20049;-78
2022/04/25 01:21:57;;;;;;;13.98;8.80;;;8.00;99.90;;;;;;5055319;28;20482;-78
2022/04/25 01:27:16;;;;;;;14.15;9.57;;;8.00;99.90;;;;;;5074407;28;20047;-78
2022/04/25 01:29:42;;;;;;;16.40;9.38;;;8.00;99.90;;;;;;5055528;28;20044;-78
2022/04/25 01:32:08;;;;;;;18.33;9.30;;;8.10;99.90;;;;;;5053087;28;20040;-78
2022/04/25 01:34:38;;;;;;;18.70;9.70;;;8.10;99.90;;;;;;5071285;28;20461;-78
2022/04/25 01:37:08;;;;;;;14.40;8.70;;;8.00;99.90;;;;;;5074570;28;20090;-78
2022/04/25 01:39:35;;;;;;;15.25;9.18;;;8.00;99.90;;;;;;5065173;28;20037;-78
2022/04/25 01:42:02;;;;;;;15.52;8.82;;;8.00;99.90;;;;;;5070543;28;20043;-78
2022/04/25 01:44:27;;;;;;;14.85;8.80;;;8.10;99.90;;;;;;5052458;28;20079;-78
2022/04/25 01:46:53;;;;;;;18.02;9.18;;;8.10;99.90;;;;;;5072788;28;20457;-79
2022/04/25 01:49:19;;;;;;;15.60;9.07;;;8.10;99.90;;;;;;5064972;28;20410;-79
2022/04/25 01:51:44;;;;;;;16.13;9.23;;;8.00;99.90;;;;;;5073083;28;20445;-79
2022/04/25 01:54:10;;;;;;;14.00;8.73;;;8.00;99.90;;;;;;5074314;28;20498;-79
2022/04/25 01:56:36;;;;;;;17.45;8.85;;;8.00;99.90;;;;;;5074040;28;20036;-79
2022/04/25 01:59:02;;;;;;;17.42;9.07;;;7.90;99.90;;;;;;5052675;28;20039;-82
2022/04/25 02:01:30;;;;;;;13.43;8.85;;;7.80;99.90;;;;;;5067471;28;20036;-81
2022/04/25 02:03:56;;;;;;;13.23;8.50;;;7.70;99.90;;;;;;5039161;28;20471;-82
2022/04/25 02:06:22;;;;;;;16.30;9.13;;;7.60;99.90;;;;;;5074161;28;20047;-82
2022/04/25 02:08:47;;;;;;;17.73;9.63;;;7.70;99.90;;;;;;5055501;28;20459;-82
2022/04/25 02:11:19;;;;;;;15.43;8.77;;;7.40;99.90;;;;;;5068220;28;20072;-82
2022/04/25 02:13:45;;;;;;;17.23;9.05;;;7.30;99.90;;;;;;5072498;28;20036;-82
2022/04/25 02:16:11;;;;;;;14.35;8.32;;;7.30;99.90;;;;;;5035550;28;20508;-78
2022/04/25 02:18:40;;;;;;;14.75;8.65;;;7.20;99.90;;;;;;5070851;28;20032;-77
2022/04/25 02:21:06;;;;;;;13.30;8.10;;;7.00;99.90;;;;;;5050175;28;20146;-78
2022/04/25 02:23:32;;;;;;;17.05;8.20;;;7.20;99.90;;;;;;5071609;28;20107;-78
2022/04/25 02:25:57;;;;;;;21.90;9.07;;;6.90;99.90;;;;;;5056463;28;20045;-77
2022/04/25 02:28:23;;;;;;;15.63;8.48;;;6.90;99.90;;;;;;5053850;28;20103;-78
2022/04/25 02:30:51;;;;;;;17.02;8.43;;;7.20;99.90;;;;;;5069973;28;20063;-78
2022/04/25 02:33:18;;;;;;;15.38;8.73;;;6.80;99.90;;;;;;5057168;28;20041;-78
2022/04/25 02:35:43;;;;;;;15.23;8.48;;;6.70;99.90;;;;;;5056280;28;20045;-78
2022/04/25 02:38:10;;;;;;;19.83;8.43;;;6.60;99.90;;;;;;5037064;28;20602;-78
2022/04/25 02:40:36;;;;;;;14.10;8.18;;;7.10;99.90;;;;;;5041061;28;20028;-78
2022/04/25 02:43:02;;;;;;;17.70;8.30;;;6.60;99.90;;;;;;5054768;28;20032;-78
2022/04/25 02:45:27;;;;;;;16.35;8.90;;;6.50;99.90;;;;;;5065855;28;20051;-78
2022/04/25 02:47:53;;;;;;;13.90;8.05;;;6.60;99.90;;;;;;5072964;28;20040;-78
2022/04/25 02:50:20;;;;;;;20.25;7.80;;;6.40;99.90;;;;;;5056387;28;20090;-80
2022/04/25 02:52:45;;;;;;;14.68;8.38;;;6.40;99.90;;;;;;5054130;28;20075;-80
2022/04/25 02:55:11;;;;;;;14.73;8.10;;;6.40;99.90;;;;;;5056198;28;20152;-80
2022/04/25 02:57:37;;;;;;;13.45;7.88;;;6.50;99.90;;;;;;5073069;28;20447;-80
2022/04/25 03:00:04;;;;;;;16.40;8.90;;;6.30;99.90;;;;;;5048724;28;20064;-80
2022/04/25 03:02:30;;;;;;;16.52;9.30;;;6.40;99.90;;;;;;5070941;28;20479;-80
2022/04/25 03:04:56;;;;;;;15.48;8.80;;;6.70;99.90;;;;;;5072979;28;20047;-81
2022/04/25 03:07:21;;;;;;;17.15;8.52;;;6.30;99.90;;;;;;5072789;28;20059;-82
2022/04/25 03:09:47;;;;;;;18.20;9.10;;;6.20;99.90;;;;;;5056121;28;20093;-81
2022/04/25 03:12:13;;;;;;;14.73;9.13;;;6.20;99.90;;;;;;5047284;28;20404;-81
2022/04/25 03:14:38;;;;;;;17.27;9.20;;;6.20;99.90;;;;;;5051656;28;20098;-82
2022/04/25 03:17:05;;;;;;;14.52;9.32;;;6.10;99.90;;;;;;5049361;28;20044;-82
2022/04/25 03:19:30;;;;;;;18.40;9.10;;;6.10;99.90;;;;;;5079311;22;20056;-81
2022/04/25 03:21:56;;;;;;;18.25;10.50;;;3.80;99.90;;;;;;5075105;28;20040;-78
2022/04/25 03:24:22;;;;;;;13.82;9.27;;;6.00;99.90;;;;;;5073707;28;20032;-78
2022/04/25 03:26:48;;;;;;;14.57;9.30;;;6.10;99.90;;;;;;5092180;28;20398;-78
2022/04/25 03:29:13;;;;;;;17.25;10.27;;;6.00;99.90;;;;;;5074986;28;20035;-78
2022/04/25 03:31:39;;;;;;;16.40;9.10;;;5.90;99.90;;;;;;5075301;28;20036;-78
2022/04/25 03:34:05;;;;;;;14.73;9.23;;;6.30;99.90;;;;;;5089862;28;20024;-77
2022/04/25 03:36:31;;;;;;;15.05;9.55;;;6.00;99.90;;;;;;5075228;28;20482;-78
2022/04/25 03:38:57;;;;;;;17.05;9.82;;;6.00;99.90;;;;;;5092047;28;20417;-78
2022/04/25 03:41:23;;;;;;;16.65;8.95;;;6.10;99.90;;;;;;5075294;28;20044;-78
2022/04/25 03:43:49;;;;;;;18.38;8.85;;;;;;;;;;5075139;28;20032;-78
2022/04/25 03:46:14;;;;;;;15.88;8.98;;;6.30;99.90;;;;;;5066937;28;20085;-78
2022/04/25 03:48:41;;;;;;;15.05;9.48;;;6.30;99.90;;;;;;5071181;28;20040;-78
2022/04/25 03:51:07;;;;;;;17.75;8.60;;;6.40;99.90;;;;;;5091244;28;20044;-78
2022/04/25 03:53:33;;;;;;;15.75;8.70;;;6.50;99.90;;;;;;5091791;28;20075;-78
2022/04/25 03:58:43;;;;;;;16.20;8.07;;;6.70;99.90;;;;;;5091070;28;20051;-78
2022/04/25 04:01:09;;;;;;;16.13;8.70;;;6.80;99.90;;;;;;5058176;28;20032;-78
2022/04/25 04:03:36;;;;;;;14.95;8.68;;;7.00;99.90;;;;;;5058547;28;20028;-78
2022/04/25 04:06:02;;;;;;;15.43;8.45;;;7.10;99.90;;;;;;5089524;28;20036;-78
2022/04/25 04:08:28;;;;;;;12.52;7.90;;;7.10;99.90;;;;;;5075210;28;20486;-78
2022/04/25 04:10:54;;;;;;;16.02;8.18;;;7.40;99.90;;;;;;5091679;28;20096;-78
2022/04/25 04:13:19;;;;;;;10.98;7.65;;;7.30;99.90;;;;;;5091150;28;20102;-78
2022/04/25 04:15:45;;;;;;;14.95;8.32;;;7.50;99.90;;;;;;5091162;28;20413;-78
2022/04/25 04:18:11;;;;;;;16.38;8.45;;;7.40;99.90;;;;;;5074491;28;20145;-78
2022/04/25 04:20:37;;;;;;;14.75;8.90;;;7.40;99.90;;;;;;5074838;28;20047;-78
2022/04/25 04:23:03;;;;;;;13.88;8.20;;;7.50;99.90;;;;;;5091365;28;20040;-78
2022/04/25 04:25:32;;;;;;;13.13;8.60;;;7.50;99.90;;;;;;5065079;28;20051;-77
2022/04/25 04:27:57;;;;;;;15.93;9.07;;;7.50;99.90;;;;;;5074178;28;20039;-78
2022/04/25 04:30:23;;;;;;;17.30;8.63;;;7.60;99.90;;;;;;5074482;28;20036;-78
2022/04/25 04:32:51;;;;;;;13.15;8.23;;;7.50;99.90;;;;;;5074853;28;20106;-78
2022/04/25 04:38:03;;;;;;;14.48;7.93;;;7.70;99.90;;;;;;5090116;28;20036;-78
2022/04/25 04:40:29;;;;;;;15.45;9.07;;;7.70;99.90;;;;;;5083006;28;20097;-78
2022/04/25 04:42:56;;;;;;;13.20;8.23;;;7.70;99.90;;;;;;5078357;28;20486;-78
2022/04/25 04:45:23;;;;;;;14.63;8.77;;;7.70;99.90;;;;;;5078378;28;20450;-78
2022/04/25 04:47:49;;;;;;;14.82;8.32;;;7.80;99.90;;;;;;5071135;28;20044;-78
2022/04/25 04:50:15;;;;;;;13.90;8.68;;;7.80;99.90;;;;;;5061660;28;20093;-78
2022/04/25 04:52:45;;;;;;;13.77;8.63;;;7.80;99.90;;;;;;5058315;28;20041;-78
2022/04/25 04:55:11;;;;;;;15.05;8.20;;;7.80;99.90;;;;;;5070834;28;20040;-78
2022/04/25 04:57:38;;;;;;;14.68;8.25;;;8.60;99.90;;;;;;5093599;28;20494;-78
2022/04/25 05:00:05;;;;;;;16.65;8.07;;;7.80;99.90;;;;;;5094488;28;20505;-78
2022/04/25 05:02:32;;;;;;;18.85;8.48;;;7.80;99.90;;;;;;5095207;28;20036;-82
2022/04/25 05:04:57;;;;;;;13.23;8.00;;;7.80;99.90;;;;;;5094974;28;20036;-82
2022/04/25 05:07:23;;;;;;;14.18;8.05;;;7.80;99.90;;;;;;5075189;28;20036;-82
2022/04/25 05:09:49;;;;;;;12.80;8.18;;;7.80;99.90;;;;;;5065183;28;20040;-82
2022/04/25 05:12:15;;;;;;;12.25;8.85;;;7.80;99.90;;;;;;5093353;28;20044;-82
2022/04/25 05:14:40;;;;;;;16.45;8.27;;;7.90;99.90;;;;;;5061375;28;20190;-82
2022/04/25 05:17:06;;;;;;;12.77;8.25;;;8.00;99.90;;;;;;5077713;28;20390;-82
2022/04/25 05:19:32;;;;;;;13.43;8.32;;;7.90;99.90;;;;;;5076123;28;20075;-82
2022/04/25 05:21:57;;;;;;;13.27;8.63;;;8.20;99.90;;;;;;5072819;28;20114;-82
2022/04/25 05:24:23;;;;;;;14.80;8.38;;;7.90;99.90;;;;;;5061079;28;20068;-82
2022/04/25 05:26:49;;;;;;;14.55;9.00;;;7.90;99.90;;;;;;5094282;28;20032;-82
2022/04/25 05:29:15;;;;;;;17.67;9.23;;;7.90;99.90;;;;;;5068534;28;20029;-82
2022/04/25 05:31:40;;;;;;;12.85;8.48;;;7.90;99.90;;;;;;5087749;28;20440;-82
2022/04/25 05:34:06;;;;;;;17.35;8.98;;;7.90;99.90;;;;;;5077432;28;20028;-82
2022/04/25 05:36:32;;;;;;;12.80;8.88;;;8.20;99.90;;;;;;5092402;28;20044;-81
2022/04/25 05:38:57;;;;;;;14.85;9.48;;;7.90;99.90;;;;;;5089739;28;20466;-80
2022/04/25 05:41:24;;;;;;;15.05;9.10;;;8.00;99.90;;;;;;5084848;28;20064;-80
2022/04/25 05:43:50;;;;;;;13.15;8.70;;;8.00;99.90;;;;;;5057896;28;20024;-80
2022/04/25 05:46:15;;;;;;;13.25;8.68;;;8.00;99.90;;;;;;5077188;28;20097;-80
2022/04/25 05:54:12;;;;;;;14.27;9.65;;;8.00;99.90;;;;;;5093601;28;20130;-80
2022/04/25 05:56:39;;;;;;;16.52;9.40;;;8.10;99.90;;;;;;5094128;28;20397;-80
2022/04/25 05:59:04;;;;;;;15.30;9.38;;;8.10;99.90;;;;;;5077521;28;20079;-80
2022/04/25 06:01:30;;;;;;;13.93;9.32;;;8.10;99.90;;;;;;5084668;28;20063;-81
2022/04/25 06:03:56;;;;;;;15.65;9.05;;;8.60;99.90;;;;;;5087945;28;20610;-81
2022/04/25 06:06:23;;;;;;;15.95;9.50;;;8.10;99.90;;;;;;5081837;28;20043;-80
2022/04/25 06:08:49;;;;;;;15.00;9.60;;;8.20;99.90;;;;;;5074936;28;20033;-80
2022/04/25 06:11:15;;;;;;;14.00;9.85;;;8.10;99.90;;;;;;5085989;28;20093;-81
2022/04/25 06:13:44;;;;;;;15.90;10.18;;;8.20;99.90;;;;;;5084298;28;20072;-80
2022/04/25 06:16:11;;;;;;;15.65;9.90;;;8.10;99.90;;;;;;5082454;28;20040;-80
2022/04/25 06:18:36;;;;;;;15.90;9.90;;;8.20;99.90;;;;;;5061349;28;20044;-80
2022/04/25 06:21:02;;;;;;;17.85;9.70;;;8.20;99.90;;;;;;5067465;28;20101;-80
2022/04/25 06:23:30;;;;;;;16.48;9.75;;;8.20;99.90;;;;;;5081641;28;20036;-80
2022/04/25 06:25:56;;;;;;;15.55;9.75;;;8.20;99.90;;;;;;5081750;28;20481;-80
2022/04/25 06:28:24;;;;;;;14.75;9.48;;;8.40;99.90;;;;;;5084959;28;20068;-80
2022/04/25 06:30:51;;;;;;;14.95;9.68;;;8.50;99.90;;;;;;5083389;28;20070;-80
2022/04/25 06:33:17;;;;;;;14.20;10.07;;;8.50;99.90;;;;;;5066733;28;20127;-80
2022/04/25 06:35:44;;;;;;;13.65;9.35;;;8.30;99.90;;;;;;5082353;28;20056;-80
2022/04/25 06:38:11;;;;;;;14.43;9.77;;;;;;;;;;5082503;28;20032;-80
2022/04/25 06:40:37;;;;;;;13.80;9.82;;;8.30;99.90;;;;;;5080870;28;20091;-80
2022/04/25 06:43:04;;;;;;;16.13;9.63;;;8.40;99.90;;;;;;5063086;28;20036;-82
2022/04/25 06:45:30;;;;;;;15.27;9.27;;;;;;;;;;5063188;28;20127;-82
2022/04/25 06:47:56;;;;;;;13.38;8.65;;;8.60;99.90;;;;;;5082118;28;20071;-81
2022/04/25 06:50:24;;;;;;;12.77;9.52;;;8.90;99.90;;;;;;5063869;28;20067;-81
2022/04/25 06:52:50;;;;;;;14.52;9.80;;;8.80;99.90;;;;;;5085398;28;20074;-82
2022/04/25 06:55:16;;;;;;;13.25;9.18;;;8.80;99.90;;;;;;5092882;28;20071;-82
2022/04/25 06:57:42;;;;;;;16.70;9.70;;;8.80;99.90;;;;;;5089634;28;20032;-82
2022/04/25 07:00:09;;;;;;;15.73;9.82;;;8.90;99.90;;;;;;5070400;28;20037;-79
2022/04/25 07:02:35;;;;;;;14.45;9.02;;;8.90;99.90;;;;;;5080023;28;20043;-79
2022/04/25 07:05:04;;;;;;;15.65;9.23;;;8.90;99.90;;;;;;5078423;28;20035;-79
2022/04/25 07:07:31;;;;;;;15.13;9.25;;;9.00;99.90;;;;;;5083554;28;20082;-79
2022/04/25 07:09:56;;;;;;;17.05;9.50;;;9.00;99.90;;;;;;5082613;28;20050;-79
2022/04/25 07:12:22;;;;;;;11.90;8.95;;;9.10;99.90;;;;;;5067482;28;20044;-79
2022/04/25 07:14:49;;;;;;;15.70;9.90;;;9.70;99.90;;;;;;5064643;28;20828;-79
2022/04/25 07:17:15;;;;;;;16.98;9.85;;;9.20;99.90;;;;;;5068487;28;20473;-82
2022/04/25 07:19:41;;;;;;;15.95;9.35;;;9.10;99.90;;;;;;5064654;28;20048;-81
2022/04/25 07:30:35;;;;;;;15.73;8.20;;;9.00;99.90;;;;;;5081904;28;20398;-82
2022/04/25 07:33:01;;;;;;;14.23;8.65;;;9.10;99.90;;;;;;5078017;28;20098;-81
2022/04/25 07:35:27;;;;;;;15.90;9.18;;;9.00;99.90;;;;;;5084484;28;20036;-81
2022/04/25 07:37:55;;;;;;;15.15;8.77;;;9.00;99.90;;;;;;5079725;28;20123;-81
2022/04/25 07:40:22;;;;;;;14.02;8.48;;;9.00;99.90;;;;;;5065209;28;20052;-81
2022/04/25 07:42:48;;;;;;;13.15;8.52;;;9.10;99.90;;;;;;5079350;28;20040;-81
2022/04/25 07:45:14;;;;;;;15.95;8.68;;;9.10;99.90;;;;;;5077858;28;20440;-81
2022/04/25 07:47:43;;;;;;;17.10;9.30;;;9.10;99.90;;;;;;5077659;28;20040;-81
2022/04/25 07:50:10;;;;;;;15.25;8.20;;;9.20;99.90;;;;;;5060551;28;20074;-79
2022/04/25 07:52:36;;;;;;;15.43;8.73;;;9.20;99.90;;;;;;5076592;28;20109;-79
2022/04/25 07:55:03;;;;;;;14.57;9.10;;;9.30;99.90;;;;;;5063228;28;20485;-79
2022/04/25 07:57:29;;;;;;;17.55;9.00;;;9.40;99.90;;;;;;5073716;28;20040;-79
2022/04/25 07:59:56;;;;;;;12.55;7.90;;;9.50;99.90;;;;;;5072941;28;20032;-79
2022/04/25 08:02:23;;;;;;;12.60;8.00;;;9.60;99.90;;;;;;5078837;28;20143;-79
2022/04/25 08:04:49;;;;;;;13.27;7.78;;;9.60;99.90;;;;;;5070830;28;20135;-79
2022/04/25 08:07:15;;;;;;;12.02;7.18;;;9.70;99.90;;;;;;5070787;28;20382;-82
2022/04/25 08:09:44;;;;;;;13.30;7.55;;;10.10;99.90;;;;;;5045953;28;20033;-82
2022/04/25 08:17:59;;;;;;;12.32;7.53;;;9.90;99.90;;;;;;5093636;28;20040;-82
2022/04/25 08:20:29;;;;;;;11.18;7.05;;;9.90;99.90;;;;;;5072880;28;20036;-82
2022/04/25 08:22:58;;;;;;;13.85;7.20;;;9.90;99.90;;;;;;5096267;28;20071;-82
2022/04/25 08:25:25;;;;;;;12.48;7.25;;;10.20;99.90;;;;;;5087045;28;20040;-82
2022/04/25 08:27:51;;;;;;;13.38;6.78;;;10.10;99.90;;;;;;5070644;28;20492;-81
2022/04/25 08:30:17;;;;;;;13.38;7.03;;;9.70;99.90;;;;;;5090917;28;20039;-81
2022/04/25 08:32:46;;;;;;;12.85;7.05;;;10.10;99.90;;;;;;5091885;28;20516;-81
2022/04/25 08:35:12;;;;;;;11.50;6.93;;;10.20;99.90;;;;;;5093620;28;20044;-82
2022/04/25 08:37:39;;;;;;;8.10;6.10;;;10.00;99.90;;;;;;5094603;28;20097;-81
2022/04/25 08:40:05;;;;;;;11.38;6.32;;;10.10;99.90;;;;;;5088271;28;20048;-80
2022/04/25 08:42:31;;;;;;;11.48;6.28;;;10.30;99.90;;;;;;5094382;28;20039;-80
2022/04/25 08:45:00;;;;;;;10.20;5.72;;;10.50;99.90;;;;;;5092180;28;20036;-80
2022/04/25 08:47:35;;;;;;;11.82;6.05;;;10.70;99.90;;;;;;5081373;28;20039;-83
2022/04/25 08:50:01;;;;;;;12.65;6.10;;;10.80;99.90;;;;;;5088861;28;20041;-80
2022/04/25 08:52:28;;;;;;;10.85;5.88;;;10.70;99.90;;;;;;5075189;28;20097;-80
2022/04/25 08:54:57;;;;;;;11.85;5.88;;;10.80;99.90;;;;;;5093897;28;20097;-80
2022/04/25 08:57:28;;;;;;;10.05;5.72;;;11.00;99.90;;;;;;5074445;28;20093;-80
2022/04/25 08:59:56;;;;;;;10.70;5.80;;;11.00;99.90;;;;;;5091655;28;20040;-79
2022/04/25 09:02:22;;;;;;;9.35;5.18;;;11.20;99.90;;;;;;5086141;28;20462;-79
2022/04/25 09:04:51;;;;;;;11.35;6.05;;;11.30;99.90;;;;;;5061160;28;20066;-79
2022/04/25 09:07:18;;;;;;;11.35;6.20;;;11.40;99.90;;;;;;5061296;28;20036;-79
2022/04/25 09:09:43;;;;;;;10.40;6.95;;;11.50;99.90;;;;;;5076356;28;20040;-79
2022/04/25 09:12:14;;;;;;;10.10;5.50;;;11.60;99.90;;;;;;5078254;28;20374;-79
2022/04/25 09:14:42;;;;;;;10.55;5.25;;;11.60;99.90;;;;;;5074279;28;20494;-79
2022/04/25 09:17:08;;;;;;;9.23;5.05;;;11.60;99.90;;;;;;5077037;28;20473;-79
2022/04/25 09:19:36;;;;;;;10.07;4.93;;;11.50;99.90;;;;;;5067314;22;20499;-80
2022/04/25 09:22:03;;;;;;;8.35;5.22;;;11.40;99.90;;;;;;5024330;28;20124;-80
2022/04/25 09:24:34;;;;;;;11.35;4.75;;;11.40;99.90;;;;;;5037725;28;20115;-79
2022/04/25 09:27:18;;;;;;;7.72;4.95;;;11.50;99.90;;;;;;5037048;28;20076;-80
2022/04/25 09:29:46;;;;;;;11.27;5.07;;;11.60;99.90;;;;;;5020332;28;20045;-75
2022/04/25 09:32:13;;;;;;;8.48;4.47;;;11.70;99.90;;;;;;5021740;28;20037;-75
2022/04/25 09:37:44;;;;;;;10.80;5.20;;;11.70;99.90;;;;;;5059504;28;20438;-75
2022/04/25 09:40:11;;;;;;;8.25;4.70;;;11.60;99.90;;;;;;5053712;28;20037;-75
2022/04/25 09:42:37;;;;;;;10.30;4.93;;;11.60;99.90;;;;;;5034694;28;20041;-76
2022/04/25 09:45:04;;;;;;;8.55;5.20;;;11.50;99.90;;;;;;5039001;28;20037;-75
2022/04/25 09:47:31;;;;;;;11.63;5.00;;;11.40;99.90;;;;;;5053133;28;20493;-75
2022/04/25 09:50:01;;;;;;;9.13;5.40;;;11.50;99.90;;;;;;5044794;28;20045;-75
2022/04/25 09:52:27;;;;;;;11.63;5.18;;;11.50;99.90;;;;;;5041197;28;20407;-75
2022/04/25 09:54:53;;;;;;;10.10;5.10;;;11.40;99.90;;;;;;5044590;28;20036;-75
2022/04/25 09:57:30;;;;;;;10.63;5.13;;;11.40;99.90;;;;;;5042198;28;20151;-75
2022/04/25 09:59:56;;;;;;;8.45;5.15;;;;;;;;;;5041892;28;20041;-75
2022/04/25 10:02:22;;;;;;;9.98;5.30;;;11.20;99.90;;;;;;5041286;28;20089;-80
2022/04/25 10:04:48;;;;;;;9.48;5.30;;;11.10;99.90;;;;;;5027115;28;20047;-80
2022/04/25 10:07:15;;;;;;;7.68;4.90;;;11.00;99.90;;;;;;5043591;28;20040;-75
2022/04/25 10:09:43;;;;;;;8.88;5.30;;;11.00;99.90;;;;;;5024816;28;20578;-75
2022/04/25 10:12:09;;;;;;;12.75;5.13;;;11.10;99.90;;;;;;5043209;28;20041;-75
2022/04/25 10:14:37;;;;;;;9.32;5.10;;;11.00;99.90;;;;;;5044923;28;20487;-75
2022/04/25 10:17:03;;;;;;;9.68;5.50;;;11.10;99.90;;;;;;5042054;28;20422;-75
2022/04/25 10:19:32;;;;;;;14.55;5.28;;;11.10;99.90;;;;;;5041683;28;20505;-75
2022/04/25 10:21:58;;;;;;;10.57;5.05;;;11.30;99.90;;;;;;5044036;28;20090;-75
2022/04/25 10:24:24;;;;;;;9.20;5.00;;;11.50;99.90;;;;;;5043333;28;20045;-75
2022/04/25 10:26:51;;;;;;;8.98;4.72;;;11.70;99.90;;;;;;5042568;28;20072;-75
2022/04/25 10:29:21;;;;;;;11.43;4.85;;;12.10;99.90;;;;;;5025385;28;20448;-75
2022/04/25 10:31:49;;;;;;;9.43;4.75;;;12.60;99.90;;;;;;5042049;28;20052;-75
2022/04/25 10:34:16;;;;;;;10.07;4.43;;;12.60;99.90;;;;;;5041778;28;20037;-75
2022/04/25 10:36:46;;;;;;;9.95;4.75;;;12.90;99.90;;;;;;5035074;28;20388;-80
2022/04/25 10:39:16;;;;;;;8.45;4.38;;;13.20;99.90;;;;;;5051939;28;20045;-81
2022/04/25 10:44:47;;;;;;;7.38;4.30;;;14.00;99.90;;;;;;5052281;28;20057;-80
2022/04/25 10:47:31;;;;;;;9.23;3.92;;;15.10;99.90;;;;;;5050522;28;20037;-81
2022/04/25 10:49:57;;;;;;;7.55;4.22;;;15.50;99.90;;;;;;5051841;28;20395;-80
2022/04/25 10:52:33;;;;;;;6.75;4.25;;;15.80;99.90;;;;;;5035603;28;20044;-81
2022/04/25 10:55:14;;;;;;;;;;;16.50;99.90;;;;;;5052878;28;20056;-80
2022/04/25 10:58:02;;;;;;;9.05;3.60;;;17.10;99.90;;;;;;5052458;28;19930;-80
2022/04/25 11:00:48;;;;;;;8.15;3.97;;;17.20;99.90;;;;;;5052116;28;20045;-80
2022/04/25 11:03:30;;;;;;;8.88;4.25;;;17.10;99.90;;;;;;5038582;28;20075;-80
2022/04/25 11:06:05;;;;;;;10.68;4.30;;;16.70;99.90;;;;;;5032213;28;20059;-81
2022/04/25 11:08:35;;;;;;;7.03;4.13;;;16.50;99.90;;;;;;5058325;28;20498;-80
2022/04/25 11:11:18;;;;;;;6.97;3.90;;;16.10;99.90;;;;;;5043731;28;20064;-80
2022/04/25 11:13:50;;;;;;;6.60;4.13;;;15.70;99.90;;;;;;5041954;28;20044;-80
2022/04/25 11:16:19;;;;;;;8.02;4.15;;;15.40;99.90;;;;;;5041577;28;20052;-80
2022/04/25 11:18:45;;;;;;;8.45;4.18;;;15.30;99.90;;;;;;5041194;28;20487;-80
2022/04/25 11:21:16;;;;;;;10.85;4.10;;;15.20;99.90;;;;;;5023098;28;20060;-80
2022/04/25 11:23:49;;;;;;;8.25;4.70;;;15.20;99.90;;;;;;5027964;28;20068;-80
2022/04/25 11:26:21;;;;;;;8.77;3.72;;;15.20;99.90;;;;;;5026261;28;20067;-75
2022/04/25 11:29:01;;;;;;;7.22;3.83;;;15.20;99.90;;;;;;5042898;28;20036;-75
2022/04/25 11:31:31;;;;;;;9.70;4.20;;;15.10;99.90;;;;;;5042346;28;20102;-77
2022/04/25 11:34:01;;;;;;;8.02;3.70;;;15.10;99.90;;;;;;5024825;28;20475;-77
2022/04/25 11:36:29;;;;;;;8.35;4.47;;;15.20;99.90;;;;;;5051003;28;20103;-76
2022/04/25 11:41:41;;;;;;;13.05;3.72;;;15.70;99.90;;;;;;5050375;28;20044;-76
2022/04/25 11:44:08;;;;;;;8.80;4.07;;;16.50;99.90;;;;;;5050190;28;20033;-76
2022/04/25 11:46:37;;;;;;;9.13;3.58;;;17.30;99.90;;;;;;5035047;28;20044;-77
2022/04/25 11:49:05;;;;;;;6.55;3.40;;;17.70;99.40;;;;;;5049997;28;20098;-77
2022/04/25 11:51:50;;;;;;;9.05;3.60;;;17.90;99.30;;;;;;5030343;28;20055;-77
2022/04/25 11:54:16;;;;;;;7.75;3.67;;;18.20;99.10;;;;;;5047472;28;20064;-77
2022/04/25 11:56:43;;;;;;;9.80;3.90;;;19.30;97.90;;;;;;5034979;28;20068;-78
2022/04/25 11:59:14;;;;;;;7.00;3.30;;;19.30;98.20;;;;;;5050096;28;20037;-77
2022/04/25 12:01:53;;;;;;;6.38;3.55;;;19.80;96.10;;;;;;5041647;28;20498;-77
2022/04/25 12:04:35;;;;;;;8.57;4.00;;;19.70;95.00;;;;;;5052020;28;20057;-77
2022/04/25 12:07:08;;;;;;;8.57;3.75;;;19.10;95.90;;;;;;5016262;28;20042;-77
2022/04/25 12:15:38;;;;;;;15.73;4.53;;;18.70;96.50;;;;;;5063887;28;20052;-81
2022/04/25 12:18:25;;;;;;;7.60;3.92;;;18.20;96.70;;;;;;5049916;28;20486;-82
2022/04/25 12:21:00;;;;;;;8.40;3.97;;;17.50;97.20;;;;;;5051308;28;20119;-82
2022/04/25 12:23:28;;;;;;;6.72;3.55;;;16.80;97.10;;;;;;5051607;28;20130;-81
2022/04/25 12:25:55;;;;;;;6.95;4.03;;;16.60;97.80;;;;;;5033795;28;20044;-81
2022/04/25 12:28:22;;;;;;;8.25;4.22;;;16.20;98.40;;;;;;5026526;28;20056;-82
2022/04/25 12:30:57;;;;;;;7.45;3.80;;;15.90;98.90;;;;;;5040563;28;20041;-81
2022/04/25 12:33:31;;;;;;;8.02;4.07;;;15.70;99.30;;;;;;5037782;28;20045;-82
2022/04/25 12:36:16;;;;;;;7.35;3.75;;;15.50;99.50;;;;;;5040373;28;20102;-81
2022/04/25 12:38:58;;;;;;;7.90;3.90;;;15.30;99.90;;;;;;5041204;28;20484;-81
2022/04/25 12:41:35;;;;;;;8.52;3.92;;;15.00;99.90;;;;;;5038911;28;20056;-81
2022/04/25 12:44:11;;;;;;;7.65;3.78;;;14.80;99.90;;;;;;5035915;28;20147;-81
2022/04/25 12:46:47;;;;;;;10.88;4.15;;;14.70;99.90;;;;;;5055344;28;20818;-81
2022/04/25 12:49:14;;;;;;;11.60;4.28;;;14.50;99.90;;;;;;5039886;28;20443;-82
2022/04/25 12:51:41;;;;;;;6.80;3.90;;;14.50;99.90;;;;;;5018650;28;20391;-81
2022/04/25 12:54:30;;;;;;;7.95;4.38;;;14.50;99.90;;;;;;5036642;28;20045;-81
2022/04/25 12:57:04;;;;;;;10.18;4.50;;;14.50;99.90;;;;;;5040871;28;20506;-82
2022/04/25 12:59:32;;;;;;;10.65;4.20;;;14.40;99.90;;;;;;5022452;28;20483;-82
2022/04/25 13:02:32;;;;;;;8.43;4.25;;;14.40;99.90;;;;;;5040806;28;20768;-82
2022/04/25 13:05:03;;;;;;;6.85;4.10;;;14.40;99.90;;;;;;4990774;28;20067;-81
2022/04/25 13:07:37;;;;;;;6.82;3.80;;;14.30;99.90;;;;;;5041536;28;20045;-81
2022/04/25 13:10:05;;;;;;;12.77;4.53;;;14.20;99.90;;;;;;5027082;28;20056;-81
2022/04/25 13:12:42;;;;;;;7.00;4.18;;;14.20;99.90;;;;;;5044945;28;20033;-81
2022/04/25 13:15:17;;;;;;;9.23;4.50;;;14.10;99.90;;;;;;5042353;28;20518;-82
2022/04/25 13:17:43;;;;;;;11.20;4.60;;;14.10;99.90;;;;;;5042359;28;20060;-80
2022/04/25 13:20:12;;;;;;;8.27;4.25;;;14.00;99.90;;;;;;5027649;28;20036;-81
2022/04/25 13:22:38;;;;;;;9.65;4.70;;;14.00;99.90;;;;;;5043183;28;20127;-81
2022/04/25 13:25:06;;;;;;;12.10;4.70;;;13.90;99.90;;;;;;5040224;28;20040;-81
2022/04/25 13:27:32;;;;;;;8.25;4.80;;;13.90;99.90;;;;;;5024733;28;20123;-81
2022/04/25 13:29:58;;;;;;;7.82;4.88;;;13.80;99.90;;;;;;5023644;28;20048;-81
2022/04/25 13:32:24;;;;;;;8.65;4.53;;;13.70;99.90;;;;;;5023719;28;20053;-81